sensor_id;sensor_type;location;lat;lon;timestamp;P1;durP1;ratioP1;P2;durP2;ratioP2
13032;SDS011;6583;42.632;23.298;2023-03-09T00:01:43;2.27;;;1.60;;
13032;SDS011;6583;42.632;23.298;2023-03-09T00:04:11;3.27;;;1.90;;
13032;SDS011;6583;42.632;23.298;2023-03-09T00:06:39;2.67;;;1.70;;
13032;SDS011;6583;42.632;23.298;2023-03-09T00:09:07;1.83;;;1.70;;
13032;SDS011;6583;42.632;23.298;2023-03-09T00:11:34;2.80;;;1.63;;
13032;SDS011;6583;42.632;23.298;2023-03-09T00:14:00;1.60;;;1.33;;
13032;SDS011;6583;42.632;23.298;2023-03-09T00:16:28;2.07;;;1.70;;
13032;SDS011;6583;42.632;23.298;2023-03-09T00:18:56;2.53;;;1.57;;
13032;SDS011;6583;42.632;23.298;2023-03-09T00:21:24;2.20;;;1.70;;
13032;SDS011;6583;42.632;23.298;2023-03-09T00:24:01;2.30;;;1.70;;
13032;SDS011;6583;42.632;23.298;2023-03-09T00:26:30;2.07;;;1.53;;
13032;SDS011;6583;42.632;23.298;2023-03-09T00:28:57;2.17;;;1.50;;
13032;SDS011;6583;42.632;23.298;2023-03-09T00:31:24;2.33;;;1.70;;
13032;SDS011;6583;42.632;23.298;2023-03-09T00:33:51;2.10;;;1.80;;
13032;SDS011;6583;42.632;23.298;2023-03-09T00:36:18;3.07;;;2.30;;
13032;SDS011;6583;42.632;23.298;2023-03-09T00:38:48;4.80;;;3.53;;
13032;SDS011;6583;42.632;23.298;2023-03-09T00:41:16;4.03;;;3.60;;
13032;SDS011;6583;42.632;23.298;2023-03-09T00:43:44;4.30;;;3.60;;
13032;SDS011;6583;42.632;23.298;2023-03-09T00:46:11;4.90;;;3.70;;
13032;SDS011;6583;42.632;23.298;2023-03-09T00:48:39;5.27;;;3.60;;
13032;SDS011;6583;42.632;23.298;2023-03-09T00:51:06;3.90;;;3.23;;
13032;SDS011;6583;42.632;23.298;2023-03-09T00:53:33;4.43;;;3.10;;
13032;SDS011;6583;42.632;23.298;2023-03-09T00:56:00;3.33;;;3.00;;
13032;SDS011;6583;42.632;23.298;2023-03-09T00:58:28;3.27;;;2.73;;
13032;SDS011;6583;42.632;23.298;2023-03-09T01:00:56;3.43;;;2.73;;
13032;SDS011;6583;42.632;23.298;2023-03-09T01:03:23;4.37;;;3.27;;
13032;SDS011;6583;42.632;23.298;2023-03-09T01:05:50;3.97;;;3.57;;
13032;SDS011;6583;42.632;23.298;2023-03-09T01:08:16;8.10;;;4.20;;
13032;SDS011;6583;42.632;23.298;2023-03-09T01:10:44;5.37;;;4.37;;
13032;SDS011;6583;42.632;23.298;2023-03-09T01:13:10;6.13;;;5.20;;
13032;SDS011;6583;42.632;23.298;2023-03-09T01:15:37;7.80;;;5.70;;
13032;SDS011;6583;42.632;23.298;2023-03-09T01:18:05;8.87;;;5.87;;
13032;SDS011;6583;42.632;23.298;2023-03-09T01:20:32;7.47;;;5.23;;
13032;SDS011;6583;42.632;23.298;2023-03-09T01:22:58;6.17;;;4.50;;
13032;SDS011;6583;42.632;23.298;2023-03-09T01:25:25;6.30;;;4.60;;
13032;SDS011;6583;42.632;23.298;2023-03-09T01:27:52;5.70;;;4.10;;
13032;SDS011;6583;42.632;23.298;2023-03-09T01:30:19;5.77;;;4.27;;
13032;SDS011;6583;42.632;23.298;2023-03-09T01:32:46;6.17;;;4.40;;
13032;SDS011;6583;42.632;23.298;2023-03-09T01:35:14;6.87;;;4.60;;
13032;SDS011;6583;42.632;23.298;2023-03-09T01:37:41;6.43;;;4.23;;
13032;SDS011;6583;42.632;23.298;2023-03-09T01:40:10;5.70;;;3.97;;
13032;SDS011;6583;42.632;23.298;2023-03-09T01:42:41;5.77;;;3.80;;
13032;SDS011;6583;42.632;23.298;2023-03-09T01:46:13;5.43;;;3.80;;
13032;SDS011;6583;42.632;23.298;2023-03-09T01:48:16;5.30;;;3.80;;
13032;SDS011;6583;42.632;23.298;2023-03-09T01:50:44;4.77;;;3.63;;
13032;SDS011;6583;42.632;23.298;2023-03-09T01:53:12;5.47;;;3.50;;
13032;SDS011;6583;42.632;23.298;2023-03-09T01:55:42;6.53;;;3.60;;
13032;SDS011;6583;42.632;23.298;2023-03-09T01:58:12;5.60;;;3.60;;
13032;SDS011;6583;42.632;23.298;2023-03-09T02:00:42;5.57;;;3.23;;
13032;SDS011;6583;42.632;23.298;2023-03-09T02:03:13;4.70;;;3.27;;
13032;SDS011;6583;42.632;23.298;2023-03-09T02:05:43;3.63;;;3.03;;
13032;SDS011;6583;42.632;23.298;2023-03-09T02:08:15;5.63;;;3.10;;
13032;SDS011;6583;42.632;23.298;2023-03-09T02:10:43;3.57;;;3.00;;
13032;SDS011;6583;42.632;23.298;2023-03-09T02:13:15;3.63;;;2.70;;
13032;SDS011;6583;42.632;23.298;2023-03-09T02:15:44;3.60;;;2.80;;
13032;SDS011;6583;42.632;23.298;2023-03-09T02:18:11;3.47;;;3.00;;
13032;SDS011;6583;42.632;23.298;2023-03-09T02:20:40;3.03;;;2.73;;
13032;SDS011;6583;42.632;23.298;2023-03-09T02:23:16;4.33;;;2.97;;
13032;SDS011;6583;42.632;23.298;2023-03-09T02:25:52;5.47;;;3.97;;
13032;SDS011;6583;42.632;23.298;2023-03-09T02:28:25;5.23;;;4.00;;
13032;SDS011;6583;42.632;23.298;2023-03-09T02:30:52;4.87;;;3.87;;
13032;SDS011;6583;42.632;23.298;2023-03-09T02:33:23;6.40;;;4.43;;
13032;SDS011;6583;42.632;23.298;2023-03-09T02:35:51;7.07;;;4.37;;
13032;SDS011;6583;42.632;23.298;2023-03-09T02:38:18;5.73;;;4.10;;
13032;SDS011;6583;42.632;23.298;2023-03-09T02:40:45;5.80;;;4.10;;
13032;SDS011;6583;42.632;23.298;2023-03-09T02:43:13;4.80;;;3.70;;
13032;SDS011;6583;42.632;23.298;2023-03-09T02:45:44;5.93;;;3.70;;
13032;SDS011;6583;42.632;23.298;2023-03-09T02:48:11;6.07;;;3.70;;
13032;SDS011;6583;42.632;23.298;2023-03-09T02:50:38;5.50;;;3.87;;
13032;SDS011;6583;42.632;23.298;2023-03-09T02:53:05;5.17;;;3.50;;
13032;SDS011;6583;42.632;23.298;2023-03-09T02:55:31;4.23;;;3.43;;
13032;SDS011;6583;42.632;23.298;2023-03-09T02:57:58;6.13;;;3.57;;
13032;SDS011;6583;42.632;23.298;2023-03-09T03:00:25;5.63;;;3.80;;
13032;SDS011;6583;42.632;23.298;2023-03-09T03:02:53;4.73;;;3.80;;
13032;SDS011;6583;42.632;23.298;2023-03-09T03:05:20;5.33;;;4.00;;
13032;SDS011;6583;42.632;23.298;2023-03-09T03:07:47;6.67;;;4.30;;
13032;SDS011;6583;42.632;23.298;2023-03-09T03:10:14;6.13;;;4.17;;
13032;SDS011;6583;42.632;23.298;2023-03-09T03:12:41;6.63;;;4.50;;
13032;SDS011;6583;42.632;23.298;2023-03-09T03:15:08;5.97;;;4.10;;
13032;SDS011;6583;42.632;23.298;2023-03-09T03:17:36;5.23;;;4.07;;
13032;SDS011;6583;42.632;23.298;2023-03-09T03:20:05;5.87;;;4.60;;
13032;SDS011;6583;42.632;23.298;2023-03-09T03:22:37;7.50;;;4.60;;
13032;SDS011;6583;42.632;23.298;2023-03-09T03:25:03;5.97;;;4.47;;
13032;SDS011;6583;42.632;23.298;2023-03-09T03:27:31;6.53;;;4.50;;
13032;SDS011;6583;42.632;23.298;2023-03-09T03:29:58;6.73;;;4.47;;
13032;SDS011;6583;42.632;23.298;2023-03-09T03:32:25;6.40;;;4.20;;
13032;SDS011;6583;42.632;23.298;2023-03-09T03:34:52;5.43;;;4.40;;
13032;SDS011;6583;42.632;23.298;2023-03-09T03:37:20;7.20;;;4.30;;
13032;SDS011;6583;42.632;23.298;2023-03-09T03:39:48;5.93;;;4.40;;
13032;SDS011;6583;42.632;23.298;2023-03-09T03:42:14;6.27;;;4.50;;
13032;SDS011;6583;42.632;23.298;2023-03-09T03:44:41;8.20;;;4.87;;
13032;SDS011;6583;42.632;23.298;2023-03-09T03:47:07;6.87;;;4.30;;
13032;SDS011;6583;42.632;23.298;2023-03-09T03:49:34;4.83;;;4.20;;
13032;SDS011;6583;42.632;23.298;2023-03-09T03:52:01;7.77;;;4.53;;
13032;SDS011;6583;42.632;23.298;2023-03-09T03:54:29;6.80;;;4.53;;
13032;SDS011;6583;42.632;23.298;2023-03-09T03:56:56;6.30;;;4.33;;
13032;SDS011;6583;42.632;23.298;2023-03-09T03:59:23;7.90;;;4.27;;
13032;SDS011;6583;42.632;23.298;2023-03-09T04:01:49;5.23;;;4.43;;
13032;SDS011;6583;42.632;23.298;2023-03-09T04:04:16;8.50;;;4.73;;
13032;SDS011;6583;42.632;23.298;2023-03-09T04:06:43;6.13;;;4.60;;
13032;SDS011;6583;42.632;23.298;2023-03-09T04:09:09;6.90;;;4.90;;
13032;SDS011;6583;42.632;23.298;2023-03-09T04:11:38;7.60;;;4.50;;
13032;SDS011;6583;42.632;23.298;2023-03-09T04:14:04;5.37;;;4.20;;
13032;SDS011;6583;42.632;23.298;2023-03-09T04:16:31;6.63;;;4.70;;
13032;SDS011;6583;42.632;23.298;2023-03-09T04:18:58;6.50;;;3.97;;
13032;SDS011;6583;42.632;23.298;2023-03-09T04:21:24;6.10;;;4.00;;
13032;SDS011;6583;42.632;23.298;2023-03-09T04:23:51;6.60;;;4.17;;
13032;SDS011;6583;42.632;23.298;2023-03-09T04:26:18;5.60;;;3.60;;
13032;SDS011;6583;42.632;23.298;2023-03-09T04:28:46;9.10;;;4.30;;
13032;SDS011;6583;42.632;23.298;2023-03-09T04:31:12;5.63;;;4.60;;
13032;SDS011;6583;42.632;23.298;2023-03-09T04:33:39;10.87;;;4.67;;
13032;SDS011;6583;42.632;23.298;2023-03-09T04:36:08;7.80;;;4.83;;
13032;SDS011;6583;42.632;23.298;2023-03-09T04:38:35;5.63;;;3.80;;
13032;SDS011;6583;42.632;23.298;2023-03-09T04:41:02;5.43;;;3.60;;
13032;SDS011;6583;42.632;23.298;2023-03-09T04:43:28;5.10;;;3.80;;
13032;SDS011;6583;42.632;23.298;2023-03-09T04:45:57;5.40;;;3.43;;
13032;SDS011;6583;42.632;23.298;2023-03-09T04:48:23;5.77;;;3.80;;
13032;SDS011;6583;42.632;23.298;2023-03-09T04:50:50;11.43;;;7.00;;
13032;SDS011;6583;42.632;23.298;2023-03-09T04:53:17;8.30;;;5.13;;
13032;SDS011;6583;42.632;23.298;2023-03-09T04:55:43;8.37;;;5.13;;
13032;SDS011;6583;42.632;23.298;2023-03-09T04:58:10;5.27;;;3.80;;
13032;SDS011;6583;42.632;23.298;2023-03-09T05:00:37;6.63;;;4.17;;
13032;SDS011;6583;42.632;23.298;2023-03-09T05:03:05;6.53;;;3.90;;
13032;SDS011;6583;42.632;23.298;2023-03-09T05:05:32;6.53;;;4.07;;
13032;SDS011;6583;42.632;23.298;2023-03-09T05:07:58;7.30;;;4.57;;
13032;SDS011;6583;42.632;23.298;2023-03-09T05:10:25;8.13;;;5.17;;
13032;SDS011;6583;42.632;23.298;2023-03-09T05:12:52;8.67;;;5.27;;
13032;SDS011;6583;42.632;23.298;2023-03-09T05:15:18;9.13;;;5.93;;
13032;SDS011;6583;42.632;23.298;2023-03-09T05:17:45;11.27;;;6.20;;
13032;SDS011;6583;42.632;23.298;2023-03-09T05:20:13;10.50;;;6.53;;
13032;SDS011;6583;42.632;23.298;2023-03-09T05:22:41;10.67;;;6.67;;
13032;SDS011;6583;42.632;23.298;2023-03-09T05:25:08;10.77;;;6.80;;
13032;SDS011;6583;42.632;23.298;2023-03-09T05:27:35;11.57;;;7.97;;
13032;SDS011;6583;42.632;23.298;2023-03-09T05:30:02;13.03;;;9.20;;
13032;SDS011;6583;42.632;23.298;2023-03-09T05:32:29;14.13;;;9.97;;
13032;SDS011;6583;42.632;23.298;2023-03-09T05:34:56;13.80;;;10.07;;
13032;SDS011;6583;42.632;23.298;2023-03-09T05:37:24;15.23;;;9.90;;
13032;SDS011;6583;42.632;23.298;2023-03-09T05:39:51;15.43;;;8.80;;
13032;SDS011;6583;42.632;23.298;2023-03-09T05:42:18;13.30;;;8.37;;
13032;SDS011;6583;42.632;23.298;2023-03-09T05:44:45;12.67;;;8.53;;
13032;SDS011;6583;42.632;23.298;2023-03-09T05:47:11;10.93;;;7.63;;
13032;SDS011;6583;42.632;23.298;2023-03-09T05:49:38;12.30;;;8.90;;
13032;SDS011;6583;42.632;23.298;2023-03-09T05:52:05;9.57;;;6.50;;
13032;SDS011;6583;42.632;23.298;2023-03-09T05:54:33;9.90;;;6.93;;
13032;SDS011;6583;42.632;23.298;2023-03-09T05:56:59;10.07;;;6.10;;
13032;SDS011;6583;42.632;23.298;2023-03-09T05:59:27;11.13;;;6.40;;
13032;SDS011;6583;42.632;23.298;2023-03-09T06:01:53;10.37;;;6.23;;
13032;SDS011;6583;42.632;23.298;2023-03-09T06:04:20;10.60;;;7.00;;
13032;SDS011;6583;42.632;23.298;2023-03-09T06:06:47;11.93;;;6.10;;
13032;SDS011;6583;42.632;23.298;2023-03-09T06:09:13;12.03;;;7.97;;
13032;SDS011;6583;42.632;23.298;2023-03-09T06:11:41;14.53;;;9.00;;
13032;SDS011;6583;42.632;23.298;2023-03-09T06:14:08;10.03;;;6.63;;
13032;SDS011;6583;42.632;23.298;2023-03-09T06:16:35;7.23;;;5.20;;
13032;SDS011;6583;42.632;23.298;2023-03-09T06:19:02;6.13;;;4.77;;
13032;SDS011;6583;42.632;23.298;2023-03-09T06:21:29;9.13;;;5.57;;
13032;SDS011;6583;42.632;23.298;2023-03-09T06:23:56;6.80;;;4.20;;
13032;SDS011;6583;42.632;23.298;2023-03-09T06:26:23;8.37;;;5.30;;
13032;SDS011;6583;42.632;23.298;2023-03-09T06:28:52;6.70;;;4.60;;
13032;SDS011;6583;42.632;23.298;2023-03-09T06:31:18;6.40;;;4.97;;
13032;SDS011;6583;42.632;23.298;2023-03-09T06:33:46;7.00;;;4.53;;
13032;SDS011;6583;42.632;23.298;2023-03-09T06:36:14;7.33;;;4.47;;
13032;SDS011;6583;42.632;23.298;2023-03-09T06:38:42;6.57;;;4.30;;
13032;SDS011;6583;42.632;23.298;2023-03-09T06:41:09;6.80;;;5.40;;
13032;SDS011;6583;42.632;23.298;2023-03-09T06:43:37;6.57;;;5.10;;
13032;SDS011;6583;42.632;23.298;2023-03-09T06:46:08;8.57;;;4.90;;
13032;SDS011;6583;42.632;23.298;2023-03-09T06:48:35;6.83;;;4.20;;
13032;SDS011;6583;42.632;23.298;2023-03-09T06:51:01;6.30;;;4.40;;
13032;SDS011;6583;42.632;23.298;2023-03-09T06:53:28;9.73;;;4.90;;
13032;SDS011;6583;42.632;23.298;2023-03-09T06:55:57;8.27;;;4.70;;
13032;SDS011;6583;42.632;23.298;2023-03-09T06:58:25;6.97;;;5.70;;
13032;SDS011;6583;42.632;23.298;2023-03-09T07:00:51;8.57;;;5.47;;
13032;SDS011;6583;42.632;23.298;2023-03-09T07:03:19;8.30;;;5.47;;
13032;SDS011;6583;42.632;23.298;2023-03-09T07:05:46;8.90;;;5.57;;
13032;SDS011;6583;42.632;23.298;2023-03-09T07:08:12;10.57;;;5.30;;
13032;SDS011;6583;42.632;23.298;2023-03-09T07:10:39;8.00;;;5.10;;
13032;SDS011;6583;42.632;23.298;2023-03-09T07:13:10;8.93;;;6.80;;
13032;SDS011;6583;42.632;23.298;2023-03-09T07:15:39;11.67;;;6.20;;
13032;SDS011;6583;42.632;23.298;2023-03-09T07:18:05;8.97;;;5.50;;
13032;SDS011;6583;42.632;23.298;2023-03-09T07:20:34;12.90;;;6.57;;
13032;SDS011;6583;42.632;23.298;2023-03-09T07:23:00;10.60;;;5.60;;
13032;SDS011;6583;42.632;23.298;2023-03-09T07:25:27;7.73;;;4.70;;
13032;SDS011;6583;42.632;23.298;2023-03-09T07:27:54;8.87;;;5.13;;
13032;SDS011;6583;42.632;23.298;2023-03-09T07:30:20;7.70;;;5.17;;
13032;SDS011;6583;42.632;23.298;2023-03-09T07:32:47;10.70;;;5.20;;
13032;SDS011;6583;42.632;23.298;2023-03-09T07:35:14;6.93;;;4.40;;
13032;SDS011;6583;42.632;23.298;2023-03-09T07:37:42;7.00;;;5.03;;
13032;SDS011;6583;42.632;23.298;2023-03-09T07:40:09;5.80;;;4.40;;
13032;SDS011;6583;42.632;23.298;2023-03-09T07:42:37;9.20;;;4.87;;
13032;SDS011;6583;42.632;23.298;2023-03-09T07:45:04;9.20;;;5.03;;
13032;SDS011;6583;42.632;23.298;2023-03-09T07:47:31;8.77;;;5.00;;
13032;SDS011;6583;42.632;23.298;2023-03-09T07:49:58;7.33;;;4.57;;
13032;SDS011;6583;42.632;23.298;2023-03-09T07:52:25;7.27;;;5.20;;
13032;SDS011;6583;42.632;23.298;2023-03-09T07:54:57;11.37;;;5.33;;
13032;SDS011;6583;42.632;23.298;2023-03-09T07:57:23;10.03;;;5.30;;
13032;SDS011;6583;42.632;23.298;2023-03-09T07:59:51;8.17;;;5.40;;
13032;SDS011;6583;42.632;23.298;2023-03-09T08:02:18;8.77;;;5.40;;
13032;SDS011;6583;42.632;23.298;2023-03-09T08:04:45;7.97;;;5.63;;
13032;SDS011;6583;42.632;23.298;2023-03-09T08:07:12;9.27;;;5.80;;
13032;SDS011;6583;42.632;23.298;2023-03-09T08:09:39;13.03;;;6.30;;
13032;SDS011;6583;42.632;23.298;2023-03-09T08:12:07;8.70;;;5.70;;
13032;SDS011;6583;42.632;23.298;2023-03-09T08:14:35;8.70;;;5.20;;
13032;SDS011;6583;42.632;23.298;2023-03-09T08:17:01;11.07;;;6.33;;
13032;SDS011;6583;42.632;23.298;2023-03-09T08:19:29;10.30;;;6.23;;
13032;SDS011;6583;42.632;23.298;2023-03-09T08:21:55;10.47;;;7.17;;
13032;SDS011;6583;42.632;23.298;2023-03-09T08:24:22;14.07;;;7.47;;
13032;SDS011;6583;42.632;23.298;2023-03-09T08:26:49;13.27;;;7.77;;
13032;SDS011;6583;42.632;23.298;2023-03-09T08:29:17;10.63;;;7.03;;
13032;SDS011;6583;42.632;23.298;2023-03-09T08:31:44;12.80;;;7.53;;
13032;SDS011;6583;42.632;23.298;2023-03-09T08:34:11;12.97;;;7.50;;
13032;SDS011;6583;42.632;23.298;2023-03-09T08:36:37;13.10;;;8.20;;
13032;SDS011;6583;42.632;23.298;2023-03-09T08:39:04;9.57;;;7.10;;
13032;SDS011;6583;42.632;23.298;2023-03-09T08:41:31;11.97;;;6.70;;
13032;SDS011;6583;42.632;23.298;2023-03-09T08:43:57;9.57;;;6.17;;
13032;SDS011;6583;42.632;23.298;2023-03-09T08:46:26;7.67;;;5.93;;
13032;SDS011;6583;42.632;23.298;2023-03-09T08:48:53;8.53;;;6.50;;
13032;SDS011;6583;42.632;23.298;2023-03-09T08:51:21;10.67;;;5.80;;
13032;SDS011;6583;42.632;23.298;2023-03-09T08:53:48;9.37;;;6.10;;
13032;SDS011;6583;42.632;23.298;2023-03-09T08:56:15;8.20;;;5.80;;
13032;SDS011;6583;42.632;23.298;2023-03-09T08:58:42;8.03;;;5.73;;
13032;SDS011;6583;42.632;23.298;2023-03-09T09:01:09;10.20;;;6.30;;
13032;SDS011;6583;42.632;23.298;2023-03-09T09:03:37;11.77;;;6.30;;
13032;SDS011;6583;42.632;23.298;2023-03-09T09:06:05;8.80;;;6.03;;
13032;SDS011;6583;42.632;23.298;2023-03-09T09:08:33;14.20;;;8.17;;
13032;SDS011;6583;42.632;23.298;2023-03-09T09:11:03;11.13;;;7.13;;
13032;SDS011;6583;42.632;23.298;2023-03-09T09:13:31;11.37;;;6.00;;
13032;SDS011;6583;42.632;23.298;2023-03-09T09:15:57;7.60;;;5.20;;
13032;SDS011;6583;42.632;23.298;2023-03-09T09:18:25;9.47;;;5.80;;
13032;SDS011;6583;42.632;23.298;2023-03-09T09:20:53;6.93;;;4.43;;
13032;SDS011;6583;42.632;23.298;2023-03-09T09:23:19;7.27;;;4.57;;
13032;SDS011;6583;42.632;23.298;2023-03-09T09:25:52;9.23;;;4.30;;
13032;SDS011;6583;42.632;23.298;2023-03-09T09:28:20;7.80;;;4.50;;
13032;SDS011;6583;42.632;23.298;2023-03-09T09:30:52;7.43;;;4.60;;
13032;SDS011;6583;42.632;23.298;2023-03-09T09:33:19;10.23;;;4.53;;
13032;SDS011;6583;42.632;23.298;2023-03-09T09:35:54;9.03;;;4.50;;
13032;SDS011;6583;42.632;23.298;2023-03-09T09:38:22;7.57;;;4.40;;
13032;SDS011;6583;42.632;23.298;2023-03-09T09:40:49;7.33;;;4.17;;
13032;SDS011;6583;42.632;23.298;2023-03-09T09:43:16;5.80;;;3.93;;
13032;SDS011;6583;42.632;23.298;2023-03-09T09:45:43;6.40;;;4.20;;
13032;SDS011;6583;42.632;23.298;2023-03-09T09:48:12;5.43;;;4.10;;
13032;SDS011;6583;42.632;23.298;2023-03-09T09:50:49;5.00;;;3.80;;
13032;SDS011;6583;42.632;23.298;2023-03-09T09:53:29;6.37;;;3.40;;
13032;SDS011;6583;42.632;23.298;2023-03-09T09:56:03;4.93;;;2.77;;
13032;SDS011;6583;42.632;23.298;2023-03-09T09:58:39;2.03;;;1.20;;
13032;SDS011;6583;42.632;23.298;2023-03-09T10:01:13;3.63;;;1.20;;
13032;SDS011;6583;42.632;23.298;2023-03-09T10:03:46;1.97;;;1.20;;
13032;SDS011;6583;42.632;23.298;2023-03-09T10:06:18;4.57;;;3.33;;
13032;SDS011;6583;42.632;23.298;2023-03-09T10:08:47;3.53;;;2.03;;
13032;SDS011;6583;42.632;23.298;2023-03-09T10:11:20;1.63;;;1.17;;
13032;SDS011;6583;42.632;23.298;2023-03-09T10:13:50;3.30;;;1.33;;
13032;SDS011;6583;42.632;23.298;2023-03-09T10:16:22;1.83;;;1.10;;
13032;SDS011;6583;42.632;23.298;2023-03-09T10:18:52;1.70;;;1.30;;
13032;SDS011;6583;42.632;23.298;2023-03-09T10:21:23;1.77;;;1.20;;
13032;SDS011;6583;42.632;23.298;2023-03-09T10:23:55;3.33;;;1.93;;
13032;SDS011;6583;42.632;23.298;2023-03-09T10:26:32;2.30;;;1.27;;
13032;SDS011;6583;42.632;23.298;2023-03-09T10:29:10;1.20;;;1.00;;
13032;SDS011;6583;42.632;23.298;2023-03-09T10:31:44;2.07;;;1.20;;
13032;SDS011;6583;42.632;23.298;2023-03-09T10:34:16;1.87;;;1.00;;
13032;SDS011;6583;42.632;23.298;2023-03-09T10:36:52;3.33;;;1.17;;
13032;SDS011;6583;42.632;23.298;2023-03-09T10:39:25;2.60;;;1.30;;
13032;SDS011;6583;42.632;23.298;2023-03-09T10:41:55;3.17;;;1.27;;
13032;SDS011;6583;42.632;23.298;2023-03-09T10:44:26;1.90;;;0.90;;
13032;SDS011;6583;42.632;23.298;2023-03-09T10:46:57;1.30;;;1.20;;
13032;SDS011;6583;42.632;23.298;2023-03-09T10:49:25;1.30;;;1.10;;
13032;SDS011;6583;42.632;23.298;2023-03-09T10:51:55;1.37;;;1.10;;
13032;SDS011;6583;42.632;23.298;2023-03-09T10:54:26;2.23;;;1.10;;
13032;SDS011;6583;42.632;23.298;2023-03-09T10:56:57;1.20;;;1.00;;
13032;SDS011;6583;42.632;23.298;2023-03-09T10:59:24;2.13;;;1.00;;
13032;SDS011;6583;42.632;23.298;2023-03-09T11:01:52;2.17;;;1.20;;
13032;SDS011;6583;42.632;23.298;2023-03-09T11:04:26;1.90;;;1.07;;
13032;SDS011;6583;42.632;23.298;2023-03-09T11:06:56;1.77;;;1.00;;
13032;SDS011;6583;42.632;23.298;2023-03-09T11:09:26;1.27;;;1.10;;
13032;SDS011;6583;42.632;23.298;2023-03-09T11:12:06;2.37;;;1.33;;
13032;SDS011;6583;42.632;23.298;2023-03-09T11:14:40;2.30;;;1.50;;
13032;SDS011;6583;42.632;23.298;2023-03-09T11:17:25;1.70;;;1.20;;
13032;SDS011;6583;42.632;23.298;2023-03-09T11:20:20;1.50;;;1.40;;
13032;SDS011;6583;42.632;23.298;2023-03-09T11:22:52;1.33;;;1.23;;
13032;SDS011;6583;42.632;23.298;2023-03-09T11:25:30;2.20;;;1.53;;
13032;SDS011;6583;42.632;23.298;2023-03-09T11:28:08;1.40;;;1.30;;
13032;SDS011;6583;42.632;23.298;2023-03-09T11:30:41;2.73;;;1.40;;
13032;SDS011;6583;42.632;23.298;2023-03-09T11:33:09;1.10;;;1.00;;
13032;SDS011;6583;42.632;23.298;2023-03-09T11:35:41;1.33;;;1.00;;
13032;SDS011;6583;42.632;23.298;2023-03-09T11:38:11;3.47;;;0.93;;
13032;SDS011;6583;42.632;23.298;2023-03-09T11:40:40;1.90;;;1.10;;
13032;SDS011;6583;42.632;23.298;2023-03-09T11:43:10;2.77;;;1.27;;
13032;SDS011;6583;42.632;23.298;2023-03-09T11:45:43;1.63;;;1.10;;
13032;SDS011;6583;42.632;23.298;2023-03-09T11:48:13;2.20;;;1.13;;
13032;SDS011;6583;42.632;23.298;2023-03-09T11:50:50;1.53;;;1.07;;
13032;SDS011;6583;42.632;23.298;2023-03-09T11:53:25;2.23;;;1.37;;
13032;SDS011;6583;42.632;23.298;2023-03-09T11:55:56;1.20;;;1.03;;
13032;SDS011;6583;42.632;23.298;2023-03-09T11:58:28;2.10;;;1.10;;
13032;SDS011;6583;42.632;23.298;2023-03-09T12:01:04;1.20;;;1.10;;
13032;SDS011;6583;42.632;23.298;2023-03-09T12:03:35;2.50;;;1.70;;
13032;SDS011;6583;42.632;23.298;2023-03-09T12:06:12;1.47;;;1.10;;
13032;SDS011;6583;42.632;23.298;2023-03-09T12:08:53;3.37;;;1.33;;
13032;SDS011;6583;42.632;23.298;2023-03-09T12:11:23;1.67;;;1.47;;
13032;SDS011;6583;42.632;23.298;2023-03-09T12:13:56;2.50;;;1.27;;
13032;SDS011;6583;42.632;23.298;2023-03-09T12:16:28;2.67;;;1.13;;
13032;SDS011;6583;42.632;23.298;2023-03-09T12:18:59;2.57;;;1.30;;
13032;SDS011;6583;42.632;23.298;2023-03-09T12:21:29;1.20;;;1.10;;
13032;SDS011;6583;42.632;23.298;2023-03-09T12:24:02;2.57;;;1.07;;
13032;SDS011;6583;42.632;23.298;2023-03-09T12:26:42;1.40;;;1.17;;
13032;SDS011;6583;42.632;23.298;2023-03-09T12:29:16;1.50;;;1.00;;
13032;SDS011;6583;42.632;23.298;2023-03-09T12:34:48;1.27;;;1.00;;
13032;SDS011;6583;42.632;23.298;2023-03-09T12:40:36;1.63;;;1.50;;
13032;SDS011;6583;42.632;23.298;2023-03-09T12:55:18;2.43;;;0.87;;
13032;SDS011;6583;42.632;23.298;2023-03-09T12:57:48;1.20;;;1.10;;
13032;SDS011;6583;42.632;23.298;2023-03-09T13:00:20;1.10;;;1.00;;
13032;SDS011;6583;42.632;23.298;2023-03-09T13:02:51;1.27;;;1.13;;
13032;SDS011;6583;42.632;23.298;2023-03-09T13:05:26;1.60;;;1.17;;
13032;SDS011;6583;42.632;23.298;2023-03-09T13:08:03;1.35;;;1.20;;
13032;SDS011;6583;42.632;23.298;2023-03-09T13:10:33;1.47;;;1.00;;
13032;SDS011;6583;42.632;23.298;2023-03-09T13:19:37;1.20;;;1.00;;
13032;SDS011;6583;42.632;23.298;2023-03-09T13:22:15;1.53;;;1.00;;
13032;SDS011;6583;42.632;23.298;2023-03-09T13:24:45;1.23;;;1.13;;
13032;SDS011;6583;42.632;23.298;2023-03-09T13:27:14;3.43;;;1.20;;
13032;SDS011;6583;42.632;23.298;2023-03-09T13:29:49;1.50;;;1.40;;
13032;SDS011;6583;42.632;23.298;2023-03-09T13:32:21;1.75;;;1.20;;
13032;SDS011;6583;42.632;23.298;2023-03-09T13:34:52;2.33;;;1.03;;
13032;SDS011;6583;42.632;23.298;2023-03-09T13:37:23;1.20;;;1.10;;
13032;SDS011;6583;42.632;23.298;2023-03-09T13:39:56;1.30;;;1.13;;
13032;SDS011;6583;42.632;23.298;2023-03-09T13:42:28;1.53;;;1.10;;
13032;SDS011;6583;42.632;23.298;2023-03-09T13:44:57;1.43;;;1.00;;
13032;SDS011;6583;42.632;23.298;2023-03-09T13:47:25;1.43;;;1.10;;
13032;SDS011;6583;42.632;23.298;2023-03-09T13:49:54;1.17;;;1.00;;
13032;SDS011;6583;42.632;23.298;2023-03-09T13:52:22;1.10;;;1.00;;
13032;SDS011;6583;42.632;23.298;2023-03-09T13:54:49;1.80;;;1.10;;
13032;SDS011;6583;42.632;23.298;2023-03-09T13:57:19;2.87;;;1.37;;
13032;SDS011;6583;42.632;23.298;2023-03-09T13:59:50;2.80;;;1.40;;
13032;SDS011;6583;42.632;23.298;2023-03-09T14:02:21;2.67;;;1.10;;
13032;SDS011;6583;42.632;23.298;2023-03-09T14:04:49;1.87;;;1.10;;
13032;SDS011;6583;42.632;23.298;2023-03-09T14:07:29;2.73;;;1.00;;
13032;SDS011;6583;42.632;23.298;2023-03-09T14:09:58;1.60;;;1.20;;
13032;SDS011;6583;42.632;23.298;2023-03-09T14:12:29;1.00;;;1.00;;
13032;SDS011;6583;42.632;23.298;2023-03-09T14:14:57;1.27;;;1.10;;
13032;SDS011;6583;42.632;23.298;2023-03-09T14:17:27;2.20;;;1.33;;
13032;SDS011;6583;42.632;23.298;2023-03-09T14:19:55;2.47;;;1.20;;
13032;SDS011;6583;42.632;23.298;2023-03-09T14:22:26;6.87;;;1.73;;
13032;SDS011;6583;42.632;23.298;2023-03-09T14:24:56;2.03;;;1.20;;
13032;SDS011;6583;42.632;23.298;2023-03-09T14:27:24;1.30;;;1.20;;
13032;SDS011;6583;42.632;23.298;2023-03-09T14:29:55;3.07;;;1.20;;
13032;SDS011;6583;42.632;23.298;2023-03-09T14:32:23;1.93;;;1.20;;
13032;SDS011;6583;42.632;23.298;2023-03-09T14:34:54;1.20;;;1.10;;
13032;SDS011;6583;42.632;23.298;2023-03-09T14:37:23;1.20;;;1.10;;
13032;SDS011;6583;42.632;23.298;2023-03-09T14:39:51;3.10;;;1.27;;
13032;SDS011;6583;42.632;23.298;2023-03-09T14:42:23;2.10;;;1.30;;
13032;SDS011;6583;42.632;23.298;2023-03-09T14:45:00;2.80;;;1.10;;
13032;SDS011;6583;42.632;23.298;2023-03-09T14:47:33;0.93;;;0.90;;
13032;SDS011;6583;42.632;23.298;2023-03-09T14:50:02;1.10;;;1.00;;
13032;SDS011;6583;42.632;23.298;2023-03-09T14:52:30;1.60;;;1.03;;
13032;SDS011;6583;42.632;23.298;2023-03-09T14:54:57;3.10;;;1.00;;
13032;SDS011;6583;42.632;23.298;2023-03-09T14:57:26;0.93;;;0.90;;
13032;SDS011;6583;42.632;23.298;2023-03-09T14:59:53;1.73;;;1.10;;
13032;SDS011;6583;42.632;23.298;2023-03-09T15:02:20;1.10;;;1.00;;
13032;SDS011;6583;42.632;23.298;2023-03-09T15:04:49;1.17;;;1.07;;
13032;SDS011;6583;42.632;23.298;2023-03-09T15:07:17;1.53;;;1.10;;
13032;SDS011;6583;42.632;23.298;2023-03-09T15:09:44;1.00;;;0.90;;
13032;SDS011;6583;42.632;23.298;2023-03-09T15:12:11;1.43;;;1.07;;
13032;SDS011;6583;42.632;23.298;2023-03-09T15:14:40;1.97;;;1.10;;
13032;SDS011;6583;42.632;23.298;2023-03-09T15:17:08;1.43;;;1.10;;
13032;SDS011;6583;42.632;23.298;2023-03-09T15:19:38;1.60;;;1.10;;
13032;SDS011;6583;42.632;23.298;2023-03-09T15:22:05;2.40;;;1.10;;